createdAt,value
2022-08-22T00:00:46.867Z,77.90
2022-08-22T00:02:48.935Z,77.00
2022-08-22T00:02:56.068Z,70.20
2022-08-22T00:02:58.943Z,89.50
2022-08-22T00:03:24.296Z,90.20
2022-08-22T00:06:21.850Z,90.60
2022-08-22T00:09:12.288Z,90.70
2022-08-22T00:12:05.123Z,76.00
2022-08-22T00:14:50.614Z,90.20
2022-08-22T00:17:36.326Z,90.80
2022-08-22T00:20:16.351Z,90.90
2022-08-22T00:22:55.322Z,77.90
2022-08-22T00:25:34.896Z,90.20
2022-08-22T00:28:13.843Z,90.80
2022-08-22T00:31:17.339Z,90.50
2022-08-22T00:34:05.903Z,76.20
2022-08-22T00:36:39.400Z,78.00
2022-08-22T00:39:17.101Z,76.40
2022-08-22T00:42:04.254Z,90.90
2022-08-22T00:44:52.516Z,90.80
2022-08-22T00:47:47.238Z,90.50
2022-08-22T00:50:16.995Z,78.40
2022-08-22T00:53:21.655Z,77.10
2022-08-22T00:56:19.912Z,91.10
2022-08-22T00:59:23.499Z,77.10
2022-08-22T01:01:57.882Z,78.90
2022-08-22T01:04:38.669Z,91.00
2022-08-22T01:07:38.012Z,77.30
2022-08-22T01:10:20.231Z,91.30
2022-08-22T01:12:46.896Z,91.50
2022-08-22T01:15:17.489Z,91.00
2022-08-22T01:18:03.024Z,91.50
2022-08-22T01:20:51.562Z,88.00
2022-08-22T01:23:37.000Z,79.00
2022-08-22T01:26:39.411Z,91.00
2022-08-22T01:29:52.172Z,91.20
2022-08-22T01:32:57.067Z,91.10
2022-08-22T01:35:39.242Z,77.80
2022-08-22T01:38:23.956Z,77.90
2022-08-22T01:41:16.541Z,79.50
2022-08-22T01:44:00.368Z,91.20
2022-08-22T01:47:01.630Z,91.20
2022-08-22T01:49:32.152Z,91.80
2022-08-22T01:52:19.597Z,91.40
2022-08-22T01:54:58.209Z,87.70
2022-08-22T01:57:26.329Z,91.70
2022-08-22T01:59:57.488Z,88.50
2022-08-22T02:02:48.307Z,81.70
2022-08-22T02:05:38.312Z,88.20
2022-08-22T02:08:33.351Z,91.20
2022-08-22T02:11:04.373Z,91.40
2022-08-22T02:16:12.132Z,91.30
2022-08-22T02:18:50.752Z,77.80
2022-08-22T02:21:32.468Z,91.40
2022-08-22T02:24:04.736Z,91.50
2022-08-22T02:26:53.055Z,77.60
2022-08-22T02:29:29.396Z,79.10
2022-08-22T02:32:05.211Z,91.40
2022-08-22T02:34:53.723Z,77.20
2022-08-22T02:37:41.952Z,91.00
2022-08-22T02:40:30.660Z,78.40
2022-08-22T02:43:12.778Z,87.80
2022-08-22T02:45:42.476Z,91.10
2022-08-22T02:48:37.295Z,90.70
2022-08-22T02:51:03.913Z,80.10
2022-08-22T02:53:57.583Z,91.00
2022-08-22T02:56:35.848Z,91.00
2022-08-22T02:59:24.769Z,90.90
2022-08-22T03:01:52.231Z,78.80
2022-08-22T03:04:30.987Z,82.90
2022-08-22T03:07:13.065Z,77.50
2022-08-22T03:09:45.712Z,77.20
2022-08-22T03:12:32.110Z,91.10
2022-08-22T03:15:07.383Z,91.30
2022-08-22T03:17:54.176Z,91.30
2022-08-22T03:20:53.408Z,89.40
2022-08-22T03:23:40.572Z,91.00
2022-08-22T03:26:18.717Z,91.40
2022-08-22T03:31:29.498Z,78.90
2022-08-22T03:34:16.478Z,77.20
2022-08-22T03:37:04.524Z,91.40
2022-08-22T03:39:54.707Z,90.90
2022-08-22T03:42:30.421Z,77.20
2022-08-22T03:45:07.017Z,91.20
2022-08-22T03:48:09.208Z,91.10
2022-08-22T03:50:59.850Z,91.40
2022-08-22T03:53:34.257Z,87.70
2022-08-22T03:56:10.387Z,91.20
2022-08-22T03:59:01.547Z,86.50
2022-08-22T04:02:42.595Z,77.30
2022-08-22T04:05:36.133Z,90.20
2022-08-22T04:08:27.507Z,79.70
2022-08-22T04:11:31.690Z,91.40
2022-08-22T04:14:13.536Z,91.50
2022-08-22T04:17:21.284Z,90.80
2022-08-22T04:22:50.381Z,77.60
2022-08-22T04:25:43.240Z,83.90
2022-08-22T04:28:51.759Z,91.60
2022-08-22T04:31:27.748Z,79.30
2022-08-22T04:34:02.189Z,91.50
2022-08-22T04:36:43.831Z,77.70
2022-08-22T04:39:28.414Z,91.50
2022-08-22T04:42:38.933Z,91.10
2022-08-22T04:45:27.671Z,91.30
2022-08-22T04:48:09.157Z,91.50
2022-08-22T04:50:53.399Z,91.10
2022-08-22T04:53:49.371Z,85.50
2022-08-22T04:56:44.220Z,78.20
2022-08-22T04:59:15.135Z,80.10
2022-08-22T05:02:06.663Z,91.90
2022-08-22T05:04:41.432Z,91.30
2022-08-22T05:07:19.601Z,91.70
2022-08-22T05:10:09.395Z,91.50
2022-08-22T05:12:49.565Z,83.50
2022-08-22T05:15:42.870Z,91.40
2022-08-22T05:18:29.825Z,80.40
2022-08-22T05:21:01.766Z,91.40
2022-08-22T05:23:39.607Z,91.70
2022-08-22T05:26:08.171Z,92.20
2022-08-22T05:28:53.254Z,79.00
2022-08-22T05:31:33.433Z,91.60
2022-08-22T05:34:05.588Z,91.50
2022-08-22T05:36:38.024Z,89.90
2022-08-22T05:39:18.724Z,91.60
2022-08-22T05:41:46.537Z,91.70
2022-08-22T05:44:22.679Z,91.40
2022-08-22T05:46:58.936Z,88.40
2022-08-22T05:49:31.657Z,78.30
2022-08-22T05:52:10.418Z,81.30
2022-08-22T05:54:56.587Z,91.50
2022-08-22T05:57:31.052Z,91.70
2022-08-22T06:00:05.207Z,90.00
2022-08-22T06:03:08.053Z,83.70
2022-08-22T06:05:42.001Z,91.70
2022-08-22T06:08:29.552Z,91.80
2022-08-22T06:10:59.810Z,79.80
2022-08-22T06:13:51.315Z,79.60
2022-08-22T06:16:29.215Z,79.40
2022-08-22T06:18:57.444Z,79.60
2022-08-22T06:21:38.640Z,77.70
2022-08-22T06:24:13.196Z,80.00
2022-08-22T06:26:48.874Z,79.20
2022-08-22T06:29:29.736Z,79.10
2022-08-22T06:31:58.284Z,86.60
2022-08-22T06:34:33.415Z,91.20
2022-08-22T06:37:05.080Z,78.60
2022-08-22T06:39:41.816Z,90.60
2022-08-22T06:42:17.066Z,79.00
2022-08-22T06:45:00.914Z,90.50
2022-08-22T06:47:40.511Z,82.00
2022-08-22T06:50:14.727Z,90.80
2022-08-22T06:52:58.285Z,77.80
2022-08-22T06:55:27.766Z,79.10
2022-08-22T06:58:11.706Z,91.10
2022-08-22T07:00:42.370Z,89.20
2022-08-22T07:03:12.314Z,87.70
2022-08-22T07:05:42.948Z,87.20
2022-08-22T07:08:16.037Z,75.10
2022-08-22T07:11:18.948Z,85.90
2022-08-22T07:13:57.269Z,85.30
2022-08-22T07:16:55.075Z,85.20
2022-08-22T07:19:29.842Z,86.60
2022-08-22T07:21:57.775Z,75.80
2022-08-22T07:24:31.288Z,74.00
2022-08-22T07:27:24.979Z,83.90
2022-08-22T07:30:06.813Z,79.60
2022-08-22T07:33:17.717Z,76.10
2022-08-22T07:35:57.553Z,73.60
2022-08-22T07:38:43.129Z,57.70
2022-08-22T07:41:19.934Z,53.60
2022-08-22T07:43:57.737Z,53.50
2022-08-22T07:49:09.142Z,65.40
2022-08-22T07:51:50.766Z,62.90
2022-08-22T07:54:32.635Z,60.10
2022-08-22T07:57:31.683Z,56.60
2022-08-22T08:00:01.625Z,54.80
2022-08-22T08:02:46.136Z,46.50
2022-08-22T08:05:14.492Z,50.90
2022-08-22T08:07:44.874Z,50.50
2022-08-22T08:10:17.671Z,50.40
2022-08-22T08:12:54.135Z,49.10
2022-08-22T08:15:32.475Z,47.70
2022-08-22T08:18:06.662Z,47.90
2022-08-22T08:20:36.319Z,45.70
2022-08-22T08:23:06.692Z,44.90
2022-08-22T08:25:53.484Z,46.50
2022-08-22T08:28:37.595Z,29.80
2022-08-22T08:31:20.416Z,30.20
2022-08-22T08:33:50.522Z,29.00
2022-08-22T08:36:17.239Z,28.50
2022-08-22T08:38:53.528Z,28.80
2022-08-22T08:41:44.639Z,41.40
2022-08-22T08:44:25.258Z,42.10
2022-08-22T08:46:55.454Z,40.20
2022-08-22T08:49:42.990Z,41.30
2022-08-22T08:52:28.180Z,41.20
2022-08-22T08:55:21.957Z,43.90
2022-08-22T08:58:17.691Z,43.50
2022-08-22T09:01:06.912Z,43.80
2022-08-22T09:04:15.628Z,28.90
2022-08-22T09:07:06.939Z,27.30
2022-08-22T09:10:08.981Z,37.70
2022-08-22T09:12:56.128Z,26.00
2022-08-22T09:16:06.520Z,35.60
2022-08-22T09:18:58.298Z,25.30
2022-08-22T09:21:44.044Z,24.20
2022-08-22T09:24:28.865Z,34.60
2022-08-22T09:27:01.119Z,23.20
2022-08-22T09:33:00.855Z,23.90
2022-08-22T09:35:36.571Z,23.80
2022-08-22T09:38:33.128Z,24.90
2022-08-22T09:40:15.633Z,23.90
2022-08-22T09:41:21.816Z,25.10
2022-08-22T09:44:16.843Z,27.10
2022-08-22T09:46:43.665Z,41.80
2022-08-22T09:49:32.753Z,43.10
2022-08-22T09:52:33.236Z,42.90
2022-08-22T09:55:17.726Z,28.60
2022-08-22T09:58:04.826Z,29.20
2022-08-22T10:00:47.180Z,42.40
2022-08-22T10:03:59.028Z,42.00
2022-08-22T10:06:32.948Z,40.00
2022-08-22T10:09:12.377Z,41.30
2022-08-22T10:11:45.776Z,40.50
2022-08-22T10:14:28.300Z,40.10
2022-08-22T10:17:27.834Z,28.10
2022-08-22T10:20:09.251Z,37.30
2022-08-22T10:23:05.939Z,25.60
2022-08-22T10:25:54.490Z,24.60
2022-08-22T10:28:41.894Z,24.40
2022-08-22T10:31:16.177Z,35.60
2022-08-22T10:34:19.594Z,34.70
2022-08-22T10:37:15.919Z,23.50
2022-08-22T10:40:05.349Z,38.90
2022-08-22T10:42:36.400Z,39.10
2022-08-22T10:45:35.085Z,41.00
2022-08-22T10:48:08.830Z,39.80
2022-08-22T10:50:44.786Z,38.20
2022-08-22T10:53:30.466Z,36.10
2022-08-22T10:56:16.031Z,24.00
2022-08-22T10:58:54.828Z,23.10
2022-08-22T11:01:38.170Z,23.60
2022-08-22T11:04:30.014Z,22.10
2022-08-22T11:07:34.739Z,30.70
2022-08-22T11:10:15.231Z,22.10
2022-08-22T11:12:56.956Z,30.00
2022-08-22T11:15:55.196Z,21.30
2022-08-22T11:18:30.439Z,22.50
2022-08-22T11:21:22.786Z,23.10
2022-08-22T11:24:34.544Z,21.90
2022-08-22T11:27:31.724Z,23.10
2022-08-22T11:30:10.050Z,32.80
2022-08-22T11:33:06.983Z,22.90
2022-08-22T11:35:48.304Z,21.80
2022-08-22T11:38:39.961Z,27.70
2022-08-22T11:41:36.736Z,19.30
2022-08-22T11:44:17.214Z,19.30
2022-08-22T11:46:47.639Z,19.80
2022-08-22T11:49:14.445Z,34.10
2022-08-22T11:51:59.128Z,23.30
2022-08-22T11:54:56.802Z,22.20
2022-08-22T11:57:44.795Z,32.20
2022-08-22T12:00:12.789Z,25.00
2022-08-22T12:02:47.394Z,23.10
2022-08-22T12:05:24.575Z,23.50
2022-08-22T12:08:03.747Z,35.80
2022-08-22T12:10:34.679Z,35.20
2022-08-22T12:13:18.675Z,36.30
2022-08-22T12:16:13.272Z,37.50
2022-08-22T12:19:06.155Z,38.60
2022-08-22T12:21:57.363Z,39.30
2022-08-22T12:24:32.508Z,40.40
2022-08-22T12:27:08.333Z,26.70
2022-08-22T12:29:55.832Z,40.70
2022-08-22T12:33:00.688Z,40.60
2022-08-22T12:35:38.893Z,27.00
2022-08-22T12:38:48.699Z,41.80
2022-08-22T12:41:46.734Z,40.20
2022-08-22T12:44:40.431Z,41.80
2022-08-22T12:49:54.241Z,40.10
2022-08-22T12:52:53.226Z,38.90
2022-08-22T12:55:44.697Z,37.70
2022-08-22T12:59:00.128Z,35.80
2022-08-22T13:01:33.975Z,35.00
2022-08-22T13:04:05.220Z,35.60
2022-08-22T13:06:48.859Z,36.50
2022-08-22T13:09:28.524Z,23.90
2022-08-22T13:12:14.727Z,23.30
2022-08-22T13:14:50.918Z,34.80
2022-08-22T13:17:24.426Z,33.70
2022-08-22T13:20:22.086Z,24.60
2022-08-22T13:22:49.231Z,34.30
2022-08-22T13:25:25.897Z,23.80
2022-08-22T13:28:04.151Z,23.10
2022-08-22T13:30:38.740Z,22.90
2022-08-22T13:33:11.746Z,22.90
2022-08-22T13:35:52.041Z,23.30
2022-08-22T13:38:32.055Z,22.90
2022-08-22T13:41:02.064Z,23.40
2022-08-22T13:43:34.796Z,25.10
2022-08-22T13:46:06.279Z,23.40
2022-08-22T13:48:50.727Z,33.60
2022-08-22T13:51:31.680Z,34.10
2022-08-22T13:54:21.378Z,23.40
2022-08-22T13:59:51.494Z,34.10
2022-08-22T14:02:38.719Z,36.50
2022-08-22T14:05:16.031Z,36.00
2022-08-22T14:07:51.747Z,25.00
2022-08-22T14:10:25.790Z,34.90
2022-08-22T14:12:57.425Z,36.90
2022-08-22T14:15:45.560Z,36.10
2022-08-22T14:18:30.242Z,36.20
2022-08-22T14:21:19.543Z,38.30
2022-08-22T14:23:54.975Z,38.60
2022-08-22T14:26:37.141Z,32.40
2022-08-22T14:29:16.535Z,26.30
2022-08-22T14:31:55.195Z,27.70
2022-08-22T14:34:23.272Z,38.40
2022-08-22T14:36:58.760Z,25.60
2022-08-22T14:39:42.750Z,39.80
2022-08-22T14:42:25.379Z,42.10
2022-08-22T14:45:17.981Z,27.70
2022-08-22T14:50:42.295Z,38.30
2022-08-22T14:53:24.930Z,44.70
2022-08-22T14:56:18.114Z,45.20
2022-08-22T14:58:57.451Z,44.60
2022-08-22T15:01:29.831Z,46.10
2022-08-22T15:04:04.651Z,45.60
2022-08-22T15:06:37.127Z,45.70
2022-08-22T15:09:25.131Z,32.80
2022-08-22T15:11:53.390Z,32.40
2022-08-22T15:14:27.808Z,31.70
2022-08-22T15:17:01.188Z,33.80
2022-08-22T15:19:47.526Z,34.50
2022-08-22T15:22:29.708Z,33.40
2022-08-22T15:25:17.702Z,42.80
2022-08-22T15:27:47.299Z,39.70
2022-08-22T15:30:20.940Z,50.10
2022-08-22T15:32:49.177Z,52.10
2022-08-22T15:35:44.616Z,39.20
2022-08-22T15:38:36.411Z,53.60
2022-08-22T15:41:25.160Z,40.20
2022-08-22T15:44:32.453Z,38.90
2022-08-22T15:47:31.514Z,38.90
2022-08-22T15:50:29.691Z,50.80
2022-08-22T15:53:08.669Z,50.60
2022-08-22T15:55:37.897Z,34.70
2022-08-22T15:58:21.916Z,50.20
2022-08-22T16:01:20.046Z,33.20
2022-08-22T16:04:07.179Z,50.40
2022-08-22T16:06:43.111Z,49.50
2022-08-22T16:09:35.357Z,34.80
2022-08-22T16:12:06.638Z,49.10
2022-08-22T16:17:04.766Z,50.70
2022-08-22T16:19:33.785Z,49.70
2022-08-22T16:22:00.612Z,50.70
2022-08-22T16:24:29.973Z,35.40
2022-08-22T16:27:20.538Z,35.70
2022-08-22T16:29:47.585Z,39.30
2022-08-22T16:32:26.038Z,51.70
2022-08-22T16:34:52.819Z,52.00
2022-08-22T16:37:33.992Z,50.40
2022-08-22T16:40:08.220Z,52.70
2022-08-22T16:42:43.424Z,46.50
2022-08-22T16:45:36.123Z,50.60
2022-08-22T16:48:25.498Z,40.50
2022-08-22T16:51:11.084Z,51.10
2022-08-22T16:53:37.718Z,52.80
2022-08-22T16:56:27.091Z,37.40
2022-08-22T16:59:09.888Z,53.60
2022-08-22T17:02:01.043Z,52.20
2022-08-22T17:05:08.116Z,36.40
2022-08-22T17:08:04.826Z,53.90
2022-08-22T17:10:59.717Z,37.10
2022-08-22T17:13:34.020Z,53.10
2022-08-22T17:16:19.232Z,53.50
2022-08-22T17:19:02.940Z,53.60
2022-08-22T17:21:38.691Z,39.90
2022-08-22T17:24:34.019Z,41.70
2022-08-22T17:27:24.317Z,40.40
2022-08-22T17:30:13.597Z,47.80
2022-08-22T17:33:00.002Z,39.00
2022-08-22T17:35:56.003Z,55.60
2022-08-22T17:38:27.221Z,55.80
2022-08-22T17:41:06.363Z,56.10
2022-08-22T17:43:52.090Z,57.80
2022-08-22T17:47:02.278Z,58.60
2022-08-22T17:49:41.265Z,59.10
2022-08-22T17:52:28.461Z,43.50
2022-08-22T17:55:05.474Z,59.00
2022-08-22T17:57:44.443Z,42.20
2022-08-22T18:00:22.948Z,45.40
2022-08-22T18:02:55.015Z,58.70
2022-08-22T18:05:33.970Z,60.00
2022-08-22T18:08:36.963Z,43.40
2022-08-22T18:10:59.549Z,46.40
2022-08-22T18:14:05.202Z,46.00
2022-08-22T18:16:45.961Z,60.70
2022-08-22T18:19:20.575Z,61.40
2022-08-22T18:21:56.277Z,47.10
2022-08-22T18:24:44.735Z,62.90
2022-08-22T18:27:29.973Z,61.60
2022-08-22T18:30:08.412Z,48.10
2022-08-22T18:32:47.212Z,63.60
2022-08-22T18:35:33.479Z,52.00
2022-08-22T18:38:20.112Z,55.00
2022-08-22T18:40:52.876Z,64.20
2022-08-22T18:43:34.676Z,62.10
2022-08-22T18:46:04.801Z,65.50
2022-08-22T18:48:54.439Z,65.70
2022-08-22T18:51:31.628Z,54.20
2022-08-22T18:54:04.136Z,49.50
2022-08-22T18:56:30.930Z,54.50
2022-08-22T18:59:15.289Z,51.70
2022-08-22T19:02:12.517Z,52.70
2022-08-22T19:07:42.720Z,66.40
2022-08-22T19:10:36.560Z,68.30
2022-08-22T19:13:18.650Z,68.20
2022-08-22T19:15:51.295Z,56.40
2022-08-22T19:18:36.335Z,68.80
2022-08-22T19:21:55.150Z,69.00
2022-08-22T19:24:27.628Z,60.20
2022-08-22T19:27:20.559Z,69.70
2022-08-22T19:32:45.751Z,55.80
2022-08-22T19:35:28.048Z,58.40
2022-08-22T19:37:57.263Z,67.30
2022-08-22T19:40:45.728Z,71.80
2022-08-22T19:43:34.324Z,73.90
2022-08-22T19:46:04.919Z,72.80
2022-08-22T19:48:44.747Z,74.00
2022-08-22T19:54:03.347Z,59.80
2022-08-22T19:57:13.758Z,60.20
2022-08-22T20:00:14.174Z,60.50
2022-08-22T20:02:44.164Z,62.20
2022-08-22T20:05:29.724Z,76.30
2022-08-22T20:10:52.328Z,77.00
2022-08-22T20:13:29.866Z,61.80
2022-08-22T20:16:08.530Z,77.70
2022-08-22T20:19:05.084Z,62.30
2022-08-22T20:21:44.312Z,77.70
2022-08-22T20:24:30.116Z,72.10
2022-08-22T20:27:15.638Z,64.90
2022-08-22T20:29:49.161Z,78.30
2022-08-22T20:32:19.962Z,78.70
2022-08-22T20:34:50.692Z,78.80
2022-08-22T20:37:40.387Z,77.90
2022-08-22T20:40:24.445Z,79.20
2022-08-22T20:43:22.942Z,65.20
2022-08-22T20:46:36.480Z,63.60
2022-08-22T20:49:04.075Z,69.20
2022-08-22T20:51:32.498Z,76.10
2022-08-22T20:54:20.028Z,67.40
2022-08-22T20:56:57.088Z,80.00
2022-08-22T20:59:33.248Z,79.50
2022-08-22T21:02:08.637Z,80.50
2022-08-22T21:04:42.791Z,79.30
2022-08-22T21:07:10.397Z,79.40
2022-08-22T21:09:55.871Z,79.60
2022-08-22T21:17:21.328Z,67.80
2022-08-22T21:22:18.492Z,70.00
2022-08-22T21:24:45.621Z,68.90
2022-08-22T21:27:24.479Z,80.30
2022-08-22T21:29:51.377Z,81.60
2022-08-22T21:32:30.675Z,68.80
2022-08-22T21:37:45.811Z,74.20
2022-08-22T21:40:31.966Z,80.40
2022-08-22T21:43:04.207Z,67.70
2022-08-22T21:45:43.846Z,74.90
2022-08-22T21:48:35.738Z,65.90
2022-08-22T21:51:36.621Z,80.50
2022-08-22T21:54:25.019Z,70.40
2022-08-22T21:56:53.606Z,68.80
2022-08-22T21:59:26.349Z,69.60
2022-08-22T22:02:37.828Z,74.50
2022-08-22T22:05:16.301Z,66.00
2022-08-22T22:07:46.359Z,80.40
2022-08-22T22:10:17.632Z,67.90
2022-08-22T22:12:46.703Z,82.00
2022-08-22T22:15:18.120Z,68.30
2022-08-22T22:20:15.472Z,81.80
2022-08-22T22:22:46.416Z,81.10
2022-08-22T22:25:40.676Z,82.40
2022-08-22T22:28:16.818Z,82.40
2022-08-22T22:30:45.634Z,69.40
2022-08-22T22:33:12.843Z,78.00
2022-08-22T22:35:40.582Z,72.70
2022-08-22T22:38:07.983Z,84.00
2022-08-22T22:40:35.183Z,83.50
2022-08-22T22:43:02.252Z,83.00
2022-08-22T22:47:57.035Z,81.20
2022-08-22T22:52:51.493Z,84.70
2022-08-22T22:57:58.459Z,83.80
2022-08-22T23:05:24.701Z,84.60
2022-08-22T23:07:51.491Z,82.20
2022-08-22T23:12:49.280Z,85.90
2022-08-22T23:17:43.889Z,86.10
2022-08-22T23:20:10.892Z,72.30
2022-08-22T23:30:02.277Z,84.40
2022-08-22T23:37:24.034Z,86.10
2022-08-22T23:44:46.221Z,72.00
2022-08-22T23:47:14.651Z,72.50
2022-08-22T23:49:42.827Z,72.70
2022-08-22T23:52:12.078Z,78.20
2022-08-22T23:57:11.905Z,86.20
2022-08-22T23:59:44.576Z,73.10
